Time;durP1;ratioP1;P1;durP2;ratioP2;P2;SDS_P1;SDS_P2;PMS_P1;PMS_P2;Temp;Humidity;BMP_temperature;BMP_pressure;BME280_temperature;BME280_humidity;BME280_pressure;Samples;Min_cycle;Max_cycle;Signal;HPM_P1;HPM_P2
2022/03/24 00:00:09;;;;;;;26.88;20.23;;;;;;;6.61;57.35;101583.69;5040620;28;20054;-50
2022/03/24 00:02:37;;;;;;;28.63;20.45;;;;;;;6.59;57.56;101585.06;5037312;28;20053;-50
2022/03/24 00:05:05;;;;;;;29.90;20.73;;;;;;;6.57;57.57;101590.03;5052702;28;20056;-51
2022/03/24 00:07:32;;;;;;;29.55;20.85;;;;;;;6.53;57.91;101583.31;5047354;28;20068;-51
2022/03/24 00:09:59;;;;;;;26.80;19.50;;;;;;;6.50;57.94;101591.06;5052427;28;20048;-51
2022/03/24 00:12:28;;;;;;;28.77;21.13;;;;;;;6.49;57.83;101586.63;5047291;28;20494;-50
2022/03/24 00:14:58;;;;;;;28.38;21.27;;;;;;;6.47;57.68;101580.53;5032524;28;20049;-54
2022/03/24 00:17:25;;;;;;;29.33;21.15;;;;;;;6.42;58.25;101577.69;5037508;28;20417;-50
2022/03/24 00:19:56;;;;;;;28.92;21.15;;;;;;;6.39;57.66;101580.97;5051691;28;20100;-50
2022/03/24 00:22:23;;;;;;;27.40;20.10;;;;;;;6.37;58.15;101571.25;5038025;28;20053;-53
2022/03/24 00:24:51;;;;;;;31.52;22.20;;;;;;;6.34;57.95;101572.63;5052321;28;20049;-51
2022/03/24 00:27:18;;;;;;;30.77;22.13;;;;;;;6.33;58.26;101573.72;5051201;28;20045;-55
2022/03/24 00:29:47;;;;;;;27.80;21.65;;;;;;;6.31;58.56;101573.13;5043194;28;20053;-51
2022/03/24 00:32:14;;;;;;;26.95;19.83;;;;;;;6.29;58.71;101570.63;5040821;28;20052;-52
2022/03/24 00:34:45;;;;;;;29.60;21.35;;;;;;;6.27;58.37;101567.28;5051747;28;20401;-51
2022/03/24 00:37:12;;;;;;;33.13;22.23;;;;;;;6.23;58.51;101563.34;5052352;28;20053;-49
2022/03/24 00:39:40;;;;;;;28.10;19.50;;;;;;;6.23;58.21;101570.81;5044503;28;20371;-54
2022/03/24 00:42:11;;;;;;;29.10;20.48;;;;;;;6.19;58.40;101566.91;5039170;28;20053;-51
2022/03/24 00:44:40;;;;;;;28.77;20.65;;;;;;;6.17;58.56;101571.84;5051622;28;20060;-50
2022/03/24 00:47:10;;;;;;;28.10;20.23;;;;;;;6.12;58.17;101569.84;5039454;28;20401;-53
2022/03/24 00:49:37;;;;;;;26.85;19.00;;;;;;;6.09;58.33;101565.69;5051157;28;20053;-49
2022/03/24 00:52:07;;;;;;;30.95;20.88;;;;;;;6.07;58.29;101562.34;5049951;28;20049;-54
2022/03/24 00:54:37;;;;;;;28.63;20.25;;;;;;;6.05;58.16;101564.53;5031519;28;20709;-55
2022/03/24 00:57:06;;;;;;;29.65;20.55;;;;;;;6.00;58.69;101567.22;5032309;28;20402;-52
2022/03/24 00:59:37;;;;;;;26.73;19.07;;;;;;;5.95;58.49;101560.78;5047841;28;20064;-55
2022/03/24 01:02:09;;;;;;;29.50;20.90;;;;;;;5.93;58.72;101561.00;5037886;28;20053;-50
2022/03/24 01:04:41;;;;;;;29.77;19.63;;;;;;;5.89;59.07;101560.69;5050905;28;20060;-53
2022/03/24 01:07:08;;;;;;;29.27;20.15;;;;;;;5.86;58.99;101569.50;5051960;28;20507;-50
2022/03/24 01:09:36;;;;;;;27.30;19.65;;;;;;;5.82;59.13;101561.97;5051122;28;20500;-54
2022/03/24 01:12:05;;;;;;;26.23;19.67;;;;;;;5.80;58.77;101567.75;5049059;28;20045;-52
2022/03/24 01:14:39;;;;;;;26.35;18.80;;;;;;;5.80;58.81;101561.41;5051714;28;20493;-49
2022/03/24 01:17:10;;;;;;;27.45;20.23;;;;;;;5.78;58.85;101564.41;5051515;28;20045;-50
2022/03/24 01:19:39;;;;;;;29.58;20.35;;;;;;;5.73;59.11;101560.72;5051577;28;20052;-51
2022/03/24 01:22:06;;;;;;;26.00;19.70;;;;;;;5.72;59.18;101564.59;5051028;28;20490;-51
2022/03/24 01:24:36;;;;;;;26.30;18.80;;;;;;;5.62;59.38;101555.06;5051537;28;20049;-51
2022/03/24 01:27:04;;;;;;;26.92;20.08;;;;;;;5.60;59.27;101556.41;5051409;28;20056;-52
2022/03/24 01:29:32;;;;;;;28.40;20.38;;;;;;;5.54;59.56;101558.25;5039496;28;20053;-51
2022/03/24 01:32:00;;;;;;;32.75;20.90;;;;;;;5.49;60.29;101559.03;5037576;28;20413;-54
2022/03/24 01:34:30;;;;;;;29.48;19.27;;;;;;;5.49;60.14;101550.72;5050052;28;20413;-52
2022/03/24 01:36:59;;;;;;;27.33;19.80;;;;;;;5.48;60.46;101553.75;5050832;28;20053;-53
2022/03/24 01:39:26;;;;;;;28.77;20.60;;;;;;;5.48;60.04;101550.97;5051525;28;20049;-50
2022/03/24 01:41:54;;;;;;;28.33;20.67;;;;;;;5.46;59.84;101550.41;5050546;28;20320;-52
2022/03/24 01:44:22;;;;;;;28.88;20.85;;;;;;;5.44;59.61;101544.31;5051121;28;20489;-52
2022/03/24 01:46:58;;;;;;;27.63;20.45;;;;;;;5.39;59.94;101542.28;5048168;28;20509;-49
2022/03/24 01:49:26;;;;;;;28.55;19.25;;;;;;;5.36;59.83;101542.81;5040941;28;20056;-53
2022/03/24 01:51:53;;;;;;;29.90;20.25;;;;;;;5.35;60.06;101537.53;5039236;28;20049;-51
2022/03/24 01:54:23;;;;;;;26.83;19.45;;;;;;;5.32;60.18;101549.09;5045971;28;20049;-54
2022/03/24 01:56:57;;;;;;;32.33;20.75;;;;;;;5.28;60.47;101541.28;5035026;28;20057;-51
2022/03/24 01:59:26;;;;;;;30.20;19.92;;;;;;;5.21;60.44;101540.66;5034966;28;20056;-49
2022/03/24 02:01:54;;;;;;;30.25;21.23;;;;;;;5.19;60.76;101545.59;5053103;28;20421;-51
2022/03/24 02:04:22;;;;;;;28.45;19.98;;;;;;;5.16;60.75;101542.47;5052335;28;20071;-54
2022/03/24 02:06:49;;;;;;;28.55;20.38;;;;;;;5.14;61.20;101544.66;5054294;28;20056;-50
2022/03/24 02:09:19;;;;;;;29.27;20.60;;;;;;;5.15;60.94;101541.66;5053369;28;20049;-49
2022/03/24 02:11:48;;;;;;;;;;;;;;;5.09;61.12;101542.66;5053411;28;20520;-53
2022/03/24 02:14:15;;;;;;;23.65;17.45;;;;;;;5.06;60.39;101529.34;5037810;28;19928;-53
2022/03/24 02:16:45;;;;;;;26.38;18.02;;;;;;;5.07;60.64;101531.03;5050591;28;20052;-53
2022/03/24 02:19:13;;;;;;;;;;;;;;;5.00;61.48;101535.88;5055067;28;20418;-52
2022/03/24 02:21:41;;;;;;;28.35;19.20;;;;;;;5.00;60.76;101531.19;5053614;28;19924;-53
2022/03/24 02:24:12;;;;;;;27.58;20.27;;;;;;;4.98;60.65;101533.38;5054238;28;20055;-54
2022/03/24 02:26:42;;;;;;;28.17;19.00;;;;;;;4.94;61.30;101526.69;5054122;28;20056;-51
2022/03/24 02:29:11;;;;;;;30.30;18.95;;;;;;;4.94;61.10;101537.72;5052857;28;20048;-50
2022/03/24 02:31:41;;;;;;;26.17;18.83;;;;;;;4.93;61.36;101529.69;5053188;28;20052;-51
2022/03/24 02:36:54;;;;;;;25.52;17.50;;;;;;;4.83;61.27;101527.56;5042334;28;20305;-52
2022/03/24 02:39:23;;;;;;;27.42;18.60;;;;;;;4.79;61.16;101534.72;5034150;28;20053;-53
2022/03/24 02:41:52;;;;;;;26.95;18.38;;;;;;;4.79;61.19;101534.72;5043199;28;20060;-50
2022/03/24 02:44:20;;;;;;;27.13;18.50;;;;;;;4.79;61.31;101530.03;5052794;28;20056;-49
2022/03/24 02:46:52;;;;;;;29.77;19.98;;;;;;;4.78;61.50;101530.25;5053845;28;20041;-51
2022/03/24 02:49:22;;;;;;;31.05;20.02;;;;;;;4.75;61.89;101539.06;5052071;28;20049;-49
2022/03/24 02:51:50;;;;;;;28.80;19.85;;;;;;;4.74;61.47;101538.19;5054338;28;20052;-55
2022/03/24 02:54:18;;;;;;;29.25;20.38;;;;;;;4.72;61.50;101540.38;5053504;28;20053;-50
2022/03/24 02:56:48;;;;;;;27.17;18.85;;;;;;;4.75;61.48;101534.38;5052741;28;20057;-51
2022/03/24 02:59:16;;;;;;;28.33;19.17;;;;;;;4.74;61.29;101531.84;5054082;28;20056;-51
2022/03/24 03:01:51;;;;;;;29.23;20.40;;;;;;;4.69;61.35;101529.84;5047167;28;20163;-52
2022/03/24 03:04:19;;;;;;;25.83;18.70;;;;;;;4.67;61.31;101521.81;5053606;28;20049;-50
2022/03/24 03:06:47;;;;;;;30.80;19.48;;;;;;;4.64;61.73;101538.00;5052862;28;20060;-52
2022/03/24 03:09:16;;;;;;;26.73;17.83;;;;;;;4.60;62.11;101534.06;5044416;28;20049;-52
2022/03/24 03:11:44;;;;;;;26.50;18.85;;;;;;;4.57;62.23;101535.41;5033842;28;20438;-54
2022/03/24 03:14:14;;;;;;;29.85;19.88;;;;;;;4.57;61.74;101537.34;5046896;28;20056;-51
2022/03/24 03:16:44;;;;;;;26.45;18.95;;;;;;;4.55;62.24;101534.00;5051918;28;20049;-49
2022/03/24 03:19:11;;;;;;;;;;;;;;;4.51;62.51;101536.41;5054026;28;20049;-49
2022/03/24 03:21:39;;;;;;;30.65;18.77;;;;;;;4.51;61.86;101539.16;5053009;28;19928;-50
2022/03/24 03:24:12;;;;;;;29.45;20.00;;;;;;;4.51;61.83;101543.84;5051374;28;20056;-51
2022/03/24 03:26:43;;;;;;;30.00;20.88;;;;;;;4.45;62.15;101549.28;5033286;28;20053;-50
2022/03/24 03:29:13;;;;;;;31.45;19.75;;;;;;;4.38;62.29;101554.09;5034629;28;20485;-50
2022/03/24 03:31:40;;;;;;;26.40;18.73;;;;;;;4.38;62.14;101556.84;5041266;28;20482;-51
2022/03/24 03:34:09;;;;;;;28.27;19.80;;;;;;;4.38;62.61;101551.34;5033329;28;20391;-52
2022/03/24 03:36:38;;;;;;;27.60;18.88;;;;;;;4.39;61.81;101554.91;5033364;28;20053;-52
2022/03/24 03:39:07;;;;;;;29.30;19.35;;;;;;;4.33;62.12;101551.25;5035524;28;20064;-52
2022/03/24 03:41:40;;;;;;;31.45;20.73;;;;;;;4.31;62.35;101552.59;5052296;28;20045;-50
2022/03/24 03:44:08;;;;;;;30.40;20.92;;;;;;;4.27;62.83;101547.53;5053027;28;20068;-49
2022/03/24 03:46:37;;;;;;;28.60;20.20;;;;;;;4.23;62.56;101542.78;5052564;28;20041;-50
2022/03/24 03:49:07;;;;;;;29.38;19.60;;;;;;;4.22;62.29;101552.13;5051227;28;20049;-50
2022/03/24 03:51:38;;;;;;;29.88;20.23;;;;;;;4.21;62.34;101555.97;5052155;28;20053;-50
2022/03/24 03:54:07;;;;;;;28.60;20.02;;;;;;;4.16;62.97;101548.44;5052955;28;20056;-50
2022/03/24 03:56:38;;;;;;;26.67;18.27;;;;;;;4.16;62.59;101550.34;5052181;28;20509;-50
2022/03/24 03:59:09;;;;;;;24.58;18.25;;;;;;;4.13;62.29;101545.31;5052878;28;20059;-50
2022/03/24 04:01:41;;;;;;;27.60;19.80;;;;;;;4.14;62.23;101549.78;5050684;28;20517;-51
2022/03/24 04:04:12;;;;;;;31.38;19.73;;;;;;;4.12;62.57;101543.66;5035318;28;20402;-51
2022/03/24 04:06:42;;;;;;;28.88;18.90;;;;;;;4.09;62.58;101552.41;5041769;28;20418;-49
2022/03/24 04:09:11;;;;;;;26.58;18.13;;;;;;;4.01;62.66;101542.59;5037402;28;20049;-52
2022/03/24 04:11:39;;;;;;;34.33;21.30;;;;;;;3.99;63.13;101545.63;5052198;28;20048;-51
2022/03/24 04:14:07;;;;;;;30.55;21.92;;;;;;;3.96;63.16;101543.31;5051722;28;20059;-52
2022/03/24 04:16:34;;;;;;;28.38;18.95;;;;;;;3.95;63.64;101547.19;5051435;28;20053;-52
2022/03/24 04:19:05;;;;;;;29.30;20.67;;;;;;;3.96;63.38;101550.78;5052505;28;20057;-49
2022/03/24 04:21:32;;;;;;;31.00;21.77;;;;;;;3.92;63.75;101544.91;5052150;28;20060;-52
2022/03/24 04:24:00;;;;;;;30.92;20.92;;;;;;;3.94;63.18;101552.94;5052071;28;20049;-50
2022/03/24 04:26:30;;;;;;;27.35;19.05;;;;;;;3.94;63.74;101542.75;5052034;28;20061;-49
2022/03/24 04:28:58;;;;;;;30.48;20.52;;;;;;;3.91;63.45;101551.50;5049956;28;20056;-49
2022/03/24 04:31:26;;;;;;;30.10;20.08;;;;;;;3.90;63.66;101541.53;5051747;28;20053;-51
2022/03/24 04:33:53;;;;;;;28.30;19.65;;;;;;;3.93;63.35;101543.00;5051775;28;20056;-50
2022/03/24 04:36:22;;;;;;;27.83;19.83;;;;;;;3.88;63.20;101546.47;5052305;28;20068;-51
2022/03/24 04:38:50;;;;;;;27.70;18.80;;;;;;;3.85;63.62;101545.03;5054513;28;20052;-50
2022/03/24 04:41:17;;;;;;;30.65;19.65;;;;;;;3.84;62.90;101551.66;5050044;28;20057;-50
2022/03/24 04:43:45;;;;;;;26.92;18.50;;;;;;;3.82;63.25;101541.91;5051549;28;20497;-51
2022/03/24 04:46:12;;;;;;;27.08;18.27;;;;;;;3.78;63.27;101544.34;5052398;28;20048;-52
2022/03/24 04:48:39;;;;;;;27.45;18.60;;;;;;;3.79;63.08;101537.75;5046721;28;20536;-50
2022/03/24 04:51:07;;;;;;;29.95;19.50;;;;;;;3.75;63.59;101530.22;5032484;28;20509;-54
2022/03/24 04:53:36;;;;;;;28.63;18.92;;;;;;;3.74;63.32;101548.66;5051909;28;20429;-53
2022/03/24 04:56:04;;;;;;;30.80;19.02;;;;;;;3.71;63.71;101546.38;5042240;28;20398;-54
2022/03/24 04:58:32;;;;;;;29.15;19.98;;;;;;;3.69;63.91;101548.53;5031743;28;20076;-51
2022/03/24 05:00:59;;;;;;;26.40;18.70;;;;;;;3.67;63.56;101553.44;5046580;28;20045;-50
2022/03/24 05:03:27;;;;;;;30.05;19.42;;;;;;;3.64;63.79;101552.03;5050917;28;20056;-50
2022/03/24 05:05:55;;;;;;;26.88;18.67;;;;;;;3.62;63.80;101548.66;5052008;28;20063;-51
2022/03/24 05:08:22;;;;;;;25.67;17.65;;;;;;;3.65;65.06;101552.84;5050111;28;20085;-50
2022/03/24 05:10:51;;;;;;;28.08;18.60;;;;;;;3.75;66.77;101552.25;5039781;28;20061;-52
2022/03/24 05:13:18;;;;;;;26.77;17.85;;;;;;;3.84;66.43;101553.53;5047575;28;20063;-53
2022/03/24 05:15:45;;;;;;;25.67;18.33;;;;;;;3.91;66.23;101551.50;5051322;28;20052;-50
2022/03/24 05:18:13;;;;;;;27.45;17.77;;;;;;;3.98;65.14;101551.38;5050048;28;20045;-50
2022/03/24 05:20:40;;;;;;;28.42;19.23;;;;;;;3.99;64.42;101553.03;5046720;28;20049;-50
2022/03/24 05:23:08;;;;;;;24.67;18.35;;;;;;;3.99;63.47;101548.38;5036139;28;20057;-52
2022/03/24 05:25:35;;;;;;;25.08;18.58;;;;;;;4.04;63.42;101553.97;5035950;28;20049;-50
2022/03/24 05:28:05;;;;;;;26.48;18.52;;;;;;;4.05;62.55;101554.81;5053298;28;20049;-51
2022/03/24 05:30:32;;;;;;;28.80;18.67;;;;;;;4.03;62.36;101554.22;5054839;28;20049;-55
2022/03/24 05:32:59;;;;;;;27.80;18.98;;;;;;;3.95;63.00;101558.22;5043153;28;20056;-51
2022/03/24 05:35:27;;;;;;;27.17;19.67;;;;;;;3.88;62.62;101554.72;5035838;28;20057;-51
2022/03/24 05:37:55;;;;;;;28.73;20.17;;;;;;;3.85;63.19;101561.56;5044295;28;20044;-50
2022/03/24 05:40:22;;;;;;;29.75;20.98;;;;;;;3.81;62.77;101557.63;5055795;28;20064;-54
2022/03/24 05:42:50;;;;;;;26.88;20.15;;;;;;;3.82;62.80;101550.19;5037695;28;20053;-51
2022/03/24 05:45:18;;;;;;;29.52;19.98;;;;;;;3.82;63.45;101558.47;5053533;28;20057;-52
2022/03/24 05:47:46;;;;;;;28.45;19.35;;;;;;;3.85;62.99;101561.56;5047400;28;20040;-50
2022/03/24 05:50:13;;;;;;;28.50;19.83;;;;;;;3.90;62.68;101552.56;5054818;28;20052;-53
2022/03/24 05:52:41;;;;;;;29.88;19.30;;;;;;;3.95;62.65;101560.09;5054440;28;20056;-50
2022/03/24 05:55:10;;;;;;;30.60;19.88;;;;;;;3.97;62.70;101563.44;5053794;28;20056;-52
2022/03/24 05:57:38;;;;;;;30.50;20.48;;;;;;;3.95;62.50;101555.44;5045953;28;20049;-52
2022/03/24 06:00:07;;;;;;;29.23;20.35;;;;;;;3.98;62.65;101556.88;5041316;28;20056;-50
2022/03/24 06:02:35;;;;;;;29.80;20.60;;;;;;;4.01;62.59;101561.88;5038015;28;20057;-53
2022/03/24 06:05:05;;;;;;;29.83;20.15;;;;;;;4.06;62.66;101559.25;5044181;28;20064;-50
2022/03/24 06:07:33;;;;;;;29.67;19.83;;;;;;;4.10;62.43;101562.38;5052424;28;20045;-53
2022/03/24 06:10:00;;;;;;;28.95;18.88;;;;;;;4.18;63.00;101564.72;5042994;28;20494;-50
2022/03/24 06:12:27;;;;;;;29.58;19.50;;;;;;;4.27;62.67;101566.03;5045736;28;20072;-49
2022/03/24 06:14:56;;;;;;;30.90;20.40;;;;;;;4.38;62.16;101567.06;5044925;28;20052;-52
2022/03/24 06:17:23;;;;;;;28.30;20.02;;;;;;;4.47;61.82;101560.03;5047115;28;20059;-50
2022/03/24 06:19:53;;;;;;;31.08;22.08;;;;;;;4.53;61.82;101569.28;5050360;28;20052;-50
2022/03/24 06:22:20;;;;;;;25.17;17.65;;;;;;;4.60;62.26;101575.47;5040755;28;20049;-50
2022/03/24 06:24:48;;;;;;;26.25;19.67;;;;;;;4.62;61.57;101576.06;5036202;28;20060;-50
2022/03/24 06:27:16;;;;;;;28.38;19.55;;;;;;;4.74;61.46;101567.72;5040847;28;20049;-54
2022/03/24 06:29:47;;;;;;;28.02;19.38;;;;;;;4.85;61.18;101561.28;5047493;28;20053;-54
2022/03/24 06:32:15;;;;;;;;;;;;;;;5.00;61.47;101572.63;5035698;28;20052;-51
2022/03/24 06:34:42;;;;;;;25.98;19.40;;;;;;;5.18;60.91;101568.75;5044567;28;19925;-53
2022/03/24 06:37:11;;;;;;;28.25;19.67;;;;;;;5.36;60.40;101567.66;5050866;28;20052;-52
2022/03/24 06:39:39;;;;;;;27.58;20.58;;;;;;;5.51;60.60;101566.22;5052477;28;20057;-55
2022/03/24 06:42:07;;;;;;;27.50;19.65;;;;;;;5.57;60.40;101560.53;5053210;28;21929;-54
2022/03/24 06:44:35;;;;;;;27.42;20.70;;;;;;;5.74;60.31;101566.00;5036215;28;20144;-54
2022/03/24 06:47:03;;;;;;;28.15;21.27;;;;;;;5.88;59.68;101572.84;5047137;28;20045;-52
2022/03/24 06:49:31;;;;;;;27.98;20.35;;;;;;;5.99;59.73;101564.72;5052377;28;20398;-50
2022/03/24 06:51:58;;;;;;;28.73;21.40;;;;;;;6.11;59.25;101562.66;5051368;28;20080;-51
2022/03/24 06:54:27;;;;;;;33.38;22.58;;;;;;;6.27;59.23;101561.75;5044358;28;20064;-51
2022/03/24 06:56:54;;;;;;;28.60;20.65;;;;;;;6.42;58.46;101563.84;5051956;28;20061;-51
2022/03/24 06:59:22;;;;;;;26.50;20.38;;;;;;;6.71;58.44;101571.91;5034677;28;20054;-53
2022/03/24 07:01:49;;;;;;;27.00;19.30;;;;;;;7.06;57.49;101563.09;5051508;28;20413;-52
2022/03/24 07:04:17;;;;;;;26.83;20.60;;;;;;;7.71;55.82;101566.59;5053426;28;20410;-55
2022/03/24 07:06:44;;;;;;;27.77;19.23;;;;;;;8.60;53.11;101558.38;5049535;28;20050;-54
2022/03/24 07:09:12;;;;;;;27.02;19.35;;;;;;;9.53;51.18;101554.53;5036410;28;20060;-53
2022/03/24 07:11:40;;;;;;;27.13;19.33;;;;;;;10.51;49.13;101557.78;5048339;28;20397;-53
2022/03/24 07:14:08;;;;;;;25.27;19.95;;;;;;;11.54;46.36;101557.81;5041592;28;20060;-52
2022/03/24 07:16:35;;;;;;;25.75;21.30;;;;;;;12.54;44.43;101549.69;5045051;28;20053;-54
2022/03/24 07:19:06;;;;;;;25.90;19.88;;;;;;;13.58;41.48;101552.50;5051189;28;20406;-52
2022/03/24 07:21:33;;;;;;;23.95;19.35;;;;;;;14.56;39.62;101548.56;5033660;28;20053;-51
2022/03/24 07:24:01;;;;;;;23.58;20.20;;;;;;;15.51;37.38;101553.25;5045821;28;20064;-53
2022/03/24 07:26:28;;;;;;;24.10;19.65;;;;;;;16.40;35.63;101545.72;5049392;28;20473;-50
2022/03/24 07:28:57;;;;;;;23.88;19.95;;;;;;;17.30;33.69;101553.50;5046906;28;20052;-50
2022/03/24 07:31:26;;;;;;;22.80;20.33;;;;;;;18.08;32.17;101549.66;5043716;28;20053;-51
2022/03/24 07:33:55;;;;;;;22.33;19.35;;;;;;;18.91;30.66;101558.59;5043294;28;20068;-48
2022/03/24 07:36:23;;;;;;;24.83;19.70;;;;;;;19.56;29.29;101551.31;5038586;28;20481;-51
2022/03/24 07:38:51;;;;;;;21.83;19.25;;;;;;;20.23;28.31;101554.84;5044358;28;20053;-48
2022/03/24 07:41:18;;;;;;;22.70;18.40;;;;;;;20.75;27.65;101556.09;5045388;28;20048;-51
2022/03/24 07:43:45;;;;;;;22.48;19.73;;;;;;;21.06;26.98;101557.41;5045066;28;20060;-50
2022/03/24 07:46:14;;;;;;;21.77;19.48;;;;;;;21.38;26.09;101549.03;5034772;28;20529;-51
2022/03/24 07:48:46;;;;;;;22.42;20.13;;;;;;;21.84;25.86;101550.28;5045464;28;20434;-48
2022/03/24 07:51:14;;;;;;;22.45;19.58;;;;;;;22.16;25.03;101550.28;5038255;28;20052;-47
2022/03/24 07:53:59;;;;;;;23.35;20.13;;;;;;;22.90;24.46;101555.25;5041232;28;20052;-53
2022/03/24 07:56:27;;;;;;;22.58;20.00;;;;;;;23.02;23.93;101542.97;5035726;28;20513;-48
2022/03/24 07:58:55;;;;;;;21.63;19.42;;;;;;;23.09;23.87;101545.94;5044166;28;20049;-49
2022/03/24 08:01:28;;;;;;;21.50;19.15;;;;;;;23.33;23.62;101547.66;5043167;28;20077;-52
2022/03/24 08:03:58;;;;;;;21.50;19.30;;;;;;;23.58;23.14;101550.13;5031844;28;20057;-48
2022/03/24 08:06:28;;;;;;;22.10;19.80;;;;;;;23.94;23.07;101547.97;5044582;28;20056;-50
2022/03/24 08:08:55;;;;;;;25.02;21.08;;;;;;;24.41;22.20;101558.09;5044032;28;20049;-49
2022/03/24 08:11:23;;;;;;;26.23;19.98;;;;;;;23.89;22.91;101558.47;5048211;28;20057;-52
2022/03/24 08:13:53;;;;;;;23.95;21.40;;;;;;;24.66;21.59;101547.09;5045298;28;20051;-49
2022/03/24 08:16:21;;;;;;;24.48;21.85;;;;;;;25.30;21.06;101558.53;5044141;28;20055;-54
2022/03/24 08:18:50;;;;;;;23.35;20.85;;;;;;;25.89;21.07;101545.34;5034133;28;20495;-49
2022/03/24 08:21:17;;;;;;;;;;;;;;;26.35;20.43;101548.94;5049754;28;20060;-49
2022/03/24 08:23:44;;;;;;;22.00;19.70;;;;;;;27.36;19.49;101538.88;5047774;28;19920;-50
2022/03/24 08:26:12;;;;;;;22.75;20.45;;;;;;;28.28;18.64;101548.81;5049287;28;20056;-52
2022/03/24 08:28:39;;;;;;;23.15;20.33;;;;;;;29.03;18.05;101551.50;5032195;28;20057;-54
2022/03/24 08:31:07;;;;;;;22.92;20.52;;;;;;;29.66;17.66;101545.84;5035997;28;20057;-53
2022/03/24 08:33:35;;;;;;;22.83;20.33;;;;;;;30.04;17.34;101551.75;5049325;28;20057;-51
2022/03/24 08:36:04;;;;;;;22.38;20.27;;;;;;;30.28;17.79;101551.94;5040987;28;20053;-52
2022/03/24 08:38:31;;;;;;;21.30;18.98;;;;;;;31.08;16.79;101559.34;5037332;28;20052;-53
2022/03/24 08:40:58;;;;;;;21.15;19.05;;;;;;;31.44;16.71;101550.25;5049992;28;20063;-53
2022/03/24 08:43:26;;;;;;;22.52;20.23;;;;;;;32.01;15.94;101550.66;5035825;28;20060;-55
2022/03/24 08:45:53;;;;;;;22.15;19.85;;;;;;;32.11;15.70;101547.56;5044961;28;20045;-53
2022/03/24 08:48:20;;;;;;;21.92;19.92;;;;;;;32.81;14.46;101545.88;5049638;28;20060;-52
2022/03/24 08:50:47;;;;;;;23.45;21.33;;;;;;;32.87;14.49;101549.88;5042743;28;20462;-54
2022/03/24 08:53:17;;;;;;;22.05;19.95;;;;;;;33.52;14.15;101551.38;5030793;28;20492;-54
2022/03/24 08:55:44;;;;;;;22.50;20.50;;;;;;;33.83;13.63;101546.13;5044631;28;20057;-54
2022/03/24 08:58:18;;;;;;;23.70;21.55;;;;;;;34.07;13.26;101551.72;5044250;28;20071;-51
2022/03/24 09:00:46;;;;;;;24.33;21.88;;;;;;;34.50;12.79;101551.44;5043378;28;20041;-52
2022/03/24 09:03:13;;;;;;;;;;;;;;;34.29;12.93;101549.09;5030843;28;20057;-51
2022/03/24 09:05:40;;;;;;;23.80;21.42;;;;;;;35.02;12.27;101560.31;5038874;28;19936;-53
2022/03/24 09:08:08;;;;;;;23.92;21.60;;;;;;;35.63;11.92;101553.47;5036294;28;20132;-54
2022/03/24 09:10:37;;;;;;;24.83;22.27;;;;;;;36.04;12.39;101559.63;5050229;28;20067;-53
2022/03/24 09:13:05;;;;;;;24.10;21.90;;;;;;;36.49;11.25;101541.06;5043881;28;20056;-55
2022/03/24 09:15:35;;;;;;;25.67;23.13;;;;;;;36.81;11.46;101553.63;5049196;28;20075;-55
2022/03/24 09:18:04;;;;;;;26.33;23.65;;;;;;;37.04;10.94;101550.22;5042007;28;20057;-54
2022/03/24 09:20:32;;;;;;;28.50;25.60;;;;;;;37.62;10.76;101548.03;5043369;28;20235;-54
2022/03/24 09:23:00;;;;;;;29.40;26.50;;;;;;;37.93;10.23;101547.97;5044401;28;20048;-54
2022/03/24 09:25:27;;;;;;;30.90;27.95;;;;;;;38.24;9.86;101547.91;5036035;28;20064;-54
2022/03/24 09:27:56;;;;;;;29.17;26.40;;;;;;;38.51;10.03;101537.59;5044131;28;20413;-53
2022/03/24 09:30:23;;;;;;;30.63;27.65;;;;;;;38.87;9.39;101547.59;5046687;28;20502;-55
2022/03/24 09:32:52;;;;;;;30.40;27.58;;;;;;;38.95;9.47;101543.03;5041777;28;20053;-53
2022/03/24 09:35:19;;;;;;;32.22;29.08;;;;;;;38.88;9.29;101543.41;5043373;28;20045;-51
2022/03/24 09:37:47;;;;;;;30.73;27.92;;;;;;;39.20;9.06;101544.00;5045686;28;20504;-51
2022/03/24 09:40:15;;;;;;;;;;;;;;;38.89;9.68;101539.16;5048931;28;20056;-54
2022/03/24 09:42:43;;;;;;;29.92;27.23;;;;;;;39.20;9.52;101547.72;5037656;28;19925;-54
2022/03/24 09:45:17;;;;;;;31.10;28.00;;;;;;;39.36;9.27;101537.81;5045046;28;20053;-53
2022/03/24 09:47:44;;;;;;;30.50;27.50;;;;;;;39.43;9.83;101549.13;5048477;28;20064;-53
2022/03/24 09:50:14;;;;;;;30.83;27.90;;;;;;;39.83;9.74;101550.09;5046902;28;20072;-55
2022/03/24 09:52:42;;;;;;;31.05;28.00;;;;;;;39.84;9.01;101554.59;5042854;28;20060;-51
2022/03/24 09:55:10;;;;;;;32.13;28.98;;;;;;;40.02;9.04;101553.75;5038800;28;20065;-55
2022/03/24 09:57:38;;;;;;;31.45;28.30;;;;;;;40.17;8.97;101549.59;5043966;28;20048;-55
2022/03/24 10:00:07;;;;;;;30.33;27.20;;;;;;;40.35;9.43;101547.88;5032725;28;20670;-55
2022/03/24 10:02:37;;;;;;;30.92;27.92;;;;;;;40.63;9.26;101554.28;5046480;28;20064;-54
2022/03/24 10:05:06;;;;;;;31.48;28.58;;;;;;;40.87;8.52;101562.22;5047422;28;20064;-56
2022/03/24 10:07:38;;;;;;;32.28;29.02;;;;;;;41.17;8.14;101554.28;5046225;28;20524;-53
2022/03/24 10:10:06;;;;;;;30.02;27.08;;;;;;;41.21;8.06;101551.19;5039400;28;20049;-54
2022/03/24 10:12:36;;;;;;;;;;;;;;;41.05;8.81;101544.47;5045498;28;20044;-52
2022/03/24 10:15:06;;;;;;;30.55;27.63;;;;;;;41.45;9.19;101540.13;5051906;28;20381;-55
2022/03/24 10:17:35;;;;;;;33.05;29.95;;;;;;;41.35;8.19;101547.41;5046920;28;20053;-54
2022/03/24 10:20:08;;;;;;;30.63;27.55;;;;;;;41.64;8.11;101545.78;5049063;28;20076;-50
2022/03/24 10:22:36;;;;;;;30.95;28.00;;;;;;;41.53;8.22;101541.34;5053099;28;20052;-51
2022/03/24 10:25:06;;;;;;;;;;;;;;;41.22;8.45;101544.81;5051188;28;20398;-51
2022/03/24 10:27:34;;;;;;;31.98;29.02;;;;;;;41.52;8.28;101545.59;5052820;28;20297;-56
2022/03/24 10:30:01;;;;;;;33.38;30.25;;;;;;;41.90;7.91;101543.78;5049969;28;20053;-55
2022/03/24 10:32:30;;;;;;;31.27;28.48;;;;;;;41.76;8.28;101530.81;5045234;28;20057;-52
2022/03/24 10:35:10;;;;;;;31.52;28.63;;;;;;;41.91;8.69;101538.75;5051223;28;20053;-54
2022/03/24 10:37:38;;;;;;;31.08;28.23;;;;;;;41.90;8.24;101535.00;5040808;28;20049;-53
2022/03/24 10:40:08;;;;;;;31.75;28.50;;;;;;;42.22;8.48;101537.34;5044019;28;20056;-52
2022/03/24 10:42:38;;;;;;;31.52;28.23;;;;;;;42.43;8.23;101532.31;5046399;28;20048;-54
2022/03/24 10:45:12;;;;;;;30.63;27.83;;;;;;;42.35;7.66;101538.56;5043737;28;20178;-52
2022/03/24 10:47:49;;;;;;;33.97;30.45;;;;;;;42.41;7.87;101526.91;5044172;28;20056;-55
2022/03/24 10:50:40;;;;;;;32.53;29.55;;;;;;;42.20;8.07;101534.91;5050937;28;20052;-54
2022/03/24 10:53:08;;;;;;;29.75;26.85;;;;;;;42.21;8.38;101518.16;5038046;28;20060;-56
2022/03/24 10:55:51;;;;;;;31.45;28.35;;;;;;;41.87;7.97;101529.38;5048574;28;20049;-55
2022/03/24 10:58:22;;;;;;;31.38;28.58;;;;;;;42.31;7.77;101523.34;5044854;28;20495;-56
2022/03/24 11:00:52;;;;;;;33.72;30.42;;;;;;;42.44;7.87;101522.97;5044707;28;20066;-53
2022/03/24 11:03:22;;;;;;;32.30;29.27;;;;;;;42.45;7.48;101520.88;5050258;28;20099;-55
2022/03/24 11:05:51;;;;;;;32.65;29.67;;;;;;;42.27;7.99;101522.75;5038506;28;20057;-53
2022/03/24 11:08:19;;;;;;;31.33;28.38;;;;;;;42.06;7.91;101527.00;5047027;28;20060;-53
2022/03/24 11:10:49;;;;;;;31.27;28.20;;;;;;;42.11;7.15;101520.44;5034766;28;20053;-55
2022/03/24 11:13:26;;;;;;;31.20;28.10;;;;;;;41.77;7.55;101517.81;5049747;28;20148;-55
2022/03/24 11:15:53;;;;;;;29.38;26.55;;;;;;;41.61;6.91;101524.22;5044152;28;20512;-55
2022/03/24 11:18:23;;;;;;;28.42;25.77;;;;;;;42.10;7.34;101510.03;5041864;28;20053;-52
2022/03/24 11:20:55;;;;;;;27.92;25.38;;;;;;;42.34;6.51;101515.66;5046423;28;20052;-54
2022/03/24 11:23:39;;;;;;;28.25;25.38;;;;;;;41.53;6.86;101515.00;5046172;28;20413;-53
2022/03/24 11:26:08;;;;;;;27.67;25.17;;;;;;;41.53;7.08;101506.22;5042780;28;20052;-54
2022/03/24 11:28:37;;;;;;;29.80;27.10;;;;;;;41.36;7.57;101508.09;5034675;28;20417;-55